Time;durP1;ratioP1;P1;durP2;ratioP2;P2;SDS_P1;SDS_P2;PMS_P1;PMS_P2;Temp;Humidity;BMP_temperature;BMP_pressure;BME280_temperature;BME280_humidity;BME280_pressure;Samples;Min_cycle;Max_cycle;Signal;HPM_P1;HPM_P2
2022/10/25 00:01:46;;;;;;;11.07;1.88;;;;;;;;;;4884054;29;20044;-88
2022/10/25 00:04:17;;;;;;;7.10;1.55;;;;;;;;;;4880816;29;20041;-88
2022/10/25 00:06:45;;;;;;;7.43;1.40;;;;;;;;;;4883283;29;20467;-88
2022/10/25 00:09:17;;;;;;;6.72;1.65;;;;;;;;;;4882655;29;20143;-88
2022/10/25 00:11:45;;;;;;;6.68;1.88;;;;;;;;;;4900374;29;20053;-88
2022/10/25 00:14:17;;;;;;;8.68;1.85;;;;;;;;;;4899160;29;20472;-88
2022/10/25 00:17:09;;;;;;;6.15;1.38;;;;;;;;;;4882031;29;20077;-87
2022/10/25 00:19:37;;;;;;;8.15;2.22;;;;;;;;;;4881300;29;20577;-87
2022/10/25 00:22:05;;;;;;;8.45;2.47;;;;;;;;;;4883042;29;20113;-88
2022/10/25 00:24:57;;;;;;;6.25;1.48;;;;;;;;;;4880926;29;20081;-88
2022/10/25 00:27:25;;;;;;;6.35;1.80;;;;;;;;;;4882203;29;20131;-88
2022/10/25 00:29:53;;;;;;;4.78;1.67;;;;;;;;;;4895236;29;20047;-88
2022/10/25 00:32:21;;;;;;;8.52;1.95;;;;;;;;;;4883920;29;20579;-88
2022/10/25 00:34:49;;;;;;;8.20;1.80;;;;;;;;;;4882643;29;20048;-87
2022/10/25 00:37:21;;;;;;;5.53;2.05;;;;;;;;;;4882178;29;20073;-88
2022/10/25 00:40:13;;;;;;;8.95;2.10;;;;;;;;;;4880660;29;20121;-87
2022/10/25 00:42:41;;;;;;;6.15;2.08;;;;;;;;;;4882919;29;20053;-87
2022/10/25 00:45:34;;;;;;;6.70;1.70;;;;;;;;;;4872680;29;20088;-88
2022/10/25 00:48:58;;;;;;;7.88;2.30;;;;;;;;;;4871537;29;20045;-88
2022/10/25 00:51:35;;;;;;;6.47;2.00;;;;;;;;;;4868780;29;20073;-87
2022/10/25 00:54:11;;;;;;;5.45;2.08;;;;;;;;;;4883859;29;20053;-88
2022/10/25 00:56:42;;;;;;;7.30;2.10;;;;;;;;;;4882675;29;20132;-88
2022/10/25 00:59:13;;;;;;;7.10;1.92;;;;;;;;;;4883988;29;20554;-88
2022/10/25 01:01:41;;;;;;;12.07;2.28;;;;;;;;;;4881164;29;20052;-88
2022/10/25 01:04:33;;;;;;;6.63;1.85;;;;;;;;;;4880514;29;20491;-88
2022/10/25 01:07:01;;;;;;;11.98;1.98;;;;;;;;;;4896686;29;20091;-88
2022/10/25 01:09:35;;;;;;;12.43;2.55;;;;;;;;;;4866759;29;20092;-88
2022/10/25 01:12:03;;;;;;;5.53;1.90;;;;;;;;;;4867975;29;20037;-88
2022/10/25 01:14:41;;;;;;;8.65;2.33;;;;;;;;;;4881079;29;20147;-88
2022/10/25 01:17:28;;;;;;;9.38;2.30;;;;;;;;;;4884229;29;20059;-87
2022/10/25 01:20:07;;;;;;;6.60;2.17;;;;;;;;;;4881711;29;20053;-88
2022/10/25 01:22:43;;;;;;;5.93;1.90;;;;;;;;;;4879700;29;20105;-87
2022/10/25 01:25:48;;;;;;;5.78;2.28;;;;;;;;;;4877667;29;20043;-87
2022/10/25 01:28:25;;;;;;;10.40;2.72;;;;;;;;;;4880719;29;20037;-87
2022/10/25 01:31:13;;;;;;;5.20;2.08;;;;;;;;;;4877777;29;20049;-87
2022/10/25 01:33:53;;;;;;;8.23;2.17;;;;;;;;;;4879396;29;20063;-87
2022/10/25 01:36:38;;;;;;;7.57;2.22;;;;;;;;;;4880625;29;20127;-87
2022/10/25 01:39:16;;;;;;;5.65;1.98;;;;;;;;;;4881813;29;20037;-87
2022/10/25 01:42:13;;;;;;;12.85;2.15;;;;;;;;;;4878842;29;20044;-87
2022/10/25 01:45:06;;;;;;;13.77;2.70;;;;;;;;;;4875830;29;20072;-87
2022/10/25 01:48:13;;;;;;;8.05;2.42;;;;;;;;;;4849485;29;20440;-88
2022/10/25 01:51:11;;;;;;;11.00;2.05;;;;;;;;;;4863662;29;20060;-87
2022/10/25 01:53:47;;;;;;;10.93;2.60;;;;;;;;;;4861947;29;20113;-87
2022/10/25 01:56:47;;;;;;;6.25;2.33;;;;;;;;;;4866944;29;20057;-87
2022/10/25 01:59:42;;;;;;;7.97;2.22;;;;;;;;;;4863935;29;20121;-87
2022/10/25 02:02:29;;;;;;;10.40;2.55;;;;;;;;;;4864947;29;20057;-87
2022/10/25 02:05:33;;;;;;;11.07;2.70;;;;;;;;;;4846384;29;20041;-87
2022/10/25 02:08:22;;;;;;;9.68;2.50;;;;;;;;;;4846279;29;20079;-88
2022/10/25 02:11:23;;;;;;;9.63;2.70;;;;;;;;;;4863503;29;20090;-87
2022/10/25 02:13:59;;;;;;;12.50;3.30;;;;;;;;;;4848201;29;20405;-87
2022/10/25 02:16:33;;;;;;;12.32;3.10;;;;;;;;;;4864596;29;20085;-87
2022/10/25 02:19:39;;;;;;;14.27;3.38;;;;;;;;;;4864139;29;20189;-87
2022/10/25 02:22:09;;;;;;;8.52;3.13;;;;;;;;;;4854907;29;20045;-87
2022/10/25 02:24:40;;;;;;;8.15;2.90;;;;;;;;;;4864250;29;20137;-87
2022/10/25 02:27:10;;;;;;;9.75;2.95;;;;;;;;;;4848066;29;20087;-87
2022/10/25 02:29:38;;;;;;;8.35;3.00;;;;;;;;;;4897689;29;20061;-88
2022/10/25 02:32:05;;;;;;;9.73;3.80;;;;;;;;;;4878491;29;20049;-88
2022/10/25 02:34:36;;;;;;;7.75;3.13;;;;;;;;;;4879977;29;20052;-87
2022/10/25 02:37:09;;;;;;;10.75;3.42;;;;;;;;;;4880612;29;20041;-87
2022/10/25 02:39:38;;;;;;;13.07;4.10;;;;;;;;;;4874575;29;20041;-87
2022/10/25 02:42:05;;;;;;;11.27;3.50;;;;;;;;;;4875578;29;20055;-87
2022/10/25 02:44:33;;;;;;;11.98;3.83;;;;;;;;;;4890421;29;20045;-87
2022/10/25 02:49:55;;;;;;;12.25;4.00;;;;;;;;;;4880272;29;20243;-87
2022/10/25 02:52:23;;;;;;;13.77;4.00;;;;;;;;;;4881047;29;20457;-87
2022/10/25 02:54:51;;;;;;;15.55;4.25;;;;;;;;;;4881348;29;20079;-87
2022/10/25 02:57:43;;;;;;;9.00;4.13;;;;;;;;;;4880195;29;20484;-87
2022/10/25 03:00:12;;;;;;;8.80;4.38;;;;;;;;;;4879363;29;20104;-87
2022/10/25 03:02:39;;;;;;;12.48;4.68;;;;;;;;;;4882539;29;20048;-87
2022/10/25 03:05:07;;;;;;;11.13;5.10;;;;;;;;;;4880692;29;20041;-87
2022/10/25 03:07:35;;;;;;;14.18;5.00;;;;;;;;;;4896060;29;20036;-87
2022/10/25 03:10:03;;;;;;;16.65;5.40;;;;;;;;;;4883517;29;20048;-87
2022/10/25 03:12:35;;;;;;;14.52;5.47;;;;;;;;;;4886709;29;20045;-87
2022/10/25 03:15:04;;;;;;;17.85;5.47;;;;;;;;;;4884367;29;20053;-87
2022/10/25 03:17:37;;;;;;;10.75;4.75;;;;;;;;;;4879654;29;20583;-87
2022/10/25 03:20:09;;;;;;;11.80;5.07;;;;;;;;;;4882762;29;20089;-87
2022/10/25 03:22:41;;;;;;;11.25;4.90;;;;;;;;;;4885320;29;20040;-87
2022/10/25 03:25:09;;;;;;;14.93;5.53;;;;;;;;;;4897878;29;20396;-87
2022/10/25 03:27:37;;;;;;;10.02;4.43;;;;;;;;;;4895957;29;20100;-87
2022/10/25 03:30:06;;;;;;;11.25;4.80;;;;;;;;;;4885271;29;20064;-87
2022/10/25 03:32:42;;;;;;;18.23;5.20;;;;;;;;;;4882171;29;20120;-86
2022/10/25 03:35:14;;;;;;;15.52;4.50;;;;;;;;;;4870563;29;20048;-87
2022/10/25 03:37:50;;;;;;;10.27;4.65;;;;;;;;;;4854084;29;20039;-87
2022/10/25 03:40:18;;;;;;;14.70;4.88;;;;;;;;;;4883021;29;20041;-87
2022/10/25 03:42:45;;;;;;;12.10;4.97;;;;;;;;;;4885491;29;20045;-87
2022/10/25 03:45:13;;;;;;;13.20;4.60;;;;;;;;;;4881240;29;20043;-87
2022/10/25 03:47:41;;;;;;;12.98;4.93;;;;;;;;;;4883944;29;20072;-88
2022/10/25 03:50:09;;;;;;;14.25;5.00;;;;;;;;;;4879833;29;20068;-87
2022/10/25 03:52:37;;;;;;;13.15;4.63;;;;;;;;;;4881739;29;20045;-87
2022/10/25 03:55:06;;;;;;;11.65;5.13;;;;;;;;;;4885707;29;20407;-87
2022/10/25 03:57:33;;;;;;;15.23;5.15;;;;;;;;;;4881102;29;20041;-87
2022/10/25 04:00:02;;;;;;;14.13;4.82;;;;;;;;;;4885789;29;20049;-87
2022/10/25 04:02:37;;;;;;;17.90;4.70;;;;;;;;;;4875131;29;20466;-87
2022/10/25 04:05:05;;;;;;;16.25;4.50;;;;;;;;;;4880341;29;20048;-87
2022/10/25 04:07:33;;;;;;;10.90;4.80;;;;;;;;;;4879249;29;20041;-88
2022/10/25 04:10:02;;;;;;;14.32;4.88;;;;;;;;;;4867110;29;20483;-87
2022/10/25 04:12:35;;;;;;;13.00;4.85;;;;;;;;;;4884053;29;20084;-87
2022/10/25 04:15:03;;;;;;;15.27;4.53;;;;;;;;;;4881905;29;20052;-87
2022/10/25 04:17:31;;;;;;;11.93;5.10;;;;;;;;;;4878361;29;20040;-87
2022/10/25 04:19:59;;;;;;;17.75;4.82;;;;;;;;;;4891087;29;20132;-87
2022/10/25 04:22:27;;;;;;;15.27;5.75;;;;;;;;;;4885992;29;20471;-88
2022/10/25 04:24:55;;;;;;;11.50;5.40;;;;;;;;;;4866586;29;20040;-87
2022/10/25 04:27:23;;;;;;;13.98;5.03;;;;;;;;;;4877383;29;20049;-87
2022/10/25 04:29:51;;;;;;;14.68;5.25;;;;;;;;;;4878923;29;20871;-87
2022/10/25 04:32:19;;;;;;;10.63;4.68;;;;;;;;;;4883153;29;20069;-87
2022/10/25 04:34:52;;;;;;;13.10;5.18;;;;;;;;;;4879931;29;20045;-87
2022/10/25 04:37:19;;;;;;;12.35;4.75;;;;;;;;;;4882146;29;20560;-87
2022/10/25 04:39:47;;;;;;;14.13;5.35;;;;;;;;;;4884266;29;20060;-87
2022/10/25 04:42:16;;;;;;;17.77;5.30;;;;;;;;;;4885037;29;20041;-87
2022/10/25 04:44:49;;;;;;;14.18;4.90;;;;;;;;;;4896946;29;20041;-87
2022/10/25 04:47:17;;;;;;;15.98;5.30;;;;;;;;;;4884355;29;20068;-87
2022/10/25 04:49:45;;;;;;;15.15;5.70;;;;;;;;;;4884055;29;20455;-87
2022/10/25 04:52:18;;;;;;;11.52;4.97;;;;;;;;;;4866789;29;20044;-87
2022/10/25 04:54:45;;;;;;;14.50;5.55;;;;;;;;;;4881146;29;20113;-87
2022/10/25 04:57:13;;;;;;;13.73;5.45;;;;;;;;;;4880835;29;20466;-87
2022/10/25 04:59:41;;;;;;;15.00;5.43;;;;;;;;;;4881686;29;20036;-87
2022/10/25 05:02:09;;;;;;;12.65;5.88;;;;;;;;;;4892819;29;20072;-87
2022/10/25 05:04:43;;;;;;;14.30;5.50;;;;;;;;;;4895890;29;20056;-88
2022/10/25 05:07:11;;;;;;;17.60;5.55;;;;;;;;;;4882959;29;20048;-88
2022/10/25 05:10:05;;;;;;;15.40;6.20;;;;;;;;;;4883715;29;20347;-88
2022/10/25 05:12:33;;;;;;;16.92;6.60;;;;;;;;;;4894781;29;20044;-88
2022/10/25 05:15:25;;;;;;;14.30;5.65;;;;;;;;;;4880556;29;20552;-87
2022/10/25 05:17:58;;;;;;;15.55;5.47;;;;;;;;;;4883329;29;20060;-88
2022/10/25 05:20:26;;;;;;;8.68;4.78;;;;;;;;;;4882087;29;20096;-89
2022/10/25 05:22:55;;;;;;;15.98;6.18;;;;;;;;;;4885503;29;20044;-88
2022/10/25 05:25:23;;;;;;;13.30;5.88;;;;;;;;;;4883105;29;20057;-88
2022/10/25 05:27:51;;;;;;;17.42;6.05;;;;;;;;;;4867833;29;20471;-89
2022/10/25 05:30:19;;;;;;;15.07;6.28;;;;;;;;;;4879897;29;20120;-88
2022/10/25 05:32:57;;;;;;;16.25;5.82;;;;;;;;;;4882693;29;20037;-90
2022/10/25 05:35:29;;;;;;;11.73;5.97;;;;;;;;;;4893389;29;20037;-91
2022/10/25 05:38:01;;;;;;;13.85;6.78;;;;;;;;;;4884983;29;20463;-88
2022/10/25 05:40:55;;;;;;;12.32;5.45;;;;;;;;;;4881178;29;20047;-89
2022/10/25 05:43:24;;;;;;;12.05;5.63;;;;;;;;;;4884972;29;20068;-89
2022/10/25 05:45:59;;;;;;;17.27;5.88;;;;;;;;;;4882657;29;20048;-90
2022/10/25 05:48:27;;;;;;;10.80;5.25;;;;;;;;;;4883355;29;20052;-89
2022/10/25 05:51:27;;;;;;;14.05;6.00;;;;;;;;;;4895411;29;20128;-89
2022/10/25 05:54:12;;;;;;;11.82;5.28;;;;;;;;;;4883674;29;20547;-89
2022/10/25 05:56:41;;;;;;;17.83;5.90;;;;;;;;;;4885451;29;20051;-89
2022/10/25 05:59:31;;;;;;;12.43;5.93;;;;;;;;;;4880528;29;20040;-89
2022/10/25 06:01:59;;;;;;;13.13;5.68;;;;;;;;;;4880042;29;20045;-90
2022/10/25 06:04:27;;;;;;;20.40;6.50;;;;;;;;;;4853248;29;20048;-89
2022/10/25 06:06:56;;;;;;;15.18;6.38;;;;;;;;;;4882163;29;20121;-89
2022/10/25 06:09:23;;;;;;;16.73;6.03;;;;;;;;;;4876476;29;20033;-90
2022/10/25 06:11:51;;;;;;;13.77;6.13;;;;;;;;;;4881184;29;20412;-89
2022/10/25 06:14:19;;;;;;;11.95;5.63;;;;;;;;;;4882249;29;20048;-90
2022/10/25 06:17:12;;;;;;;16.38;6.47;;;;;;;;;;4877914;29;20515;-90
2022/10/25 06:20:29;;;;;;;12.80;6.18;;;;;;;;;;4879644;29;20029;-90
2022/10/25 06:22:57;;;;;;;13.55;6.22;;;;;;;;;;4880895;29;20057;-90
2022/10/25 06:25:34;;;;;;;13.23;6.90;;;;;;;;;;4881882;29;20072;-90
2022/10/25 06:28:11;;;;;;;18.30;6.13;;;;;;;;;;4879518;29;20128;-90
2022/10/25 06:30:47;;;;;;;15.48;7.20;;;;;;;;;;4881801;29;20107;-89
2022/10/25 06:33:16;;;;;;;15.18;6.68;;;;;;;;;;4873507;29;20567;-91
2022/10/25 06:35:45;;;;;;;10.55;6.03;;;;;;;;;;4879688;29;20033;-90
2022/10/25 06:38:22;;;;;;;15.00;6.40;;;;;;;;;;4864543;29;20045;-90
2022/10/25 06:40:49;;;;;;;19.85;6.80;;;;;;;;;;4870525;29;20105;-90
2022/10/25 06:43:17;;;;;;;14.40;7.35;;;;;;;;;;4866446;29;20064;-90
2022/10/25 06:46:27;;;;;;;16.55;6.75;;;;;;;;;;4861405;29;20049;-89
2022/10/25 06:48:59;;;;;;;16.92;7.75;;;;;;;;;;4852638;29;20052;-90
2022/10/25 06:51:33;;;;;;;17.17;7.07;;;;;;;;;;4869489;29;20506;-89
2022/10/25 06:54:06;;;;;;;22.33;8.95;;;;;;;;;;4881849;29;20044;-90
2022/10/25 06:56:34;;;;;;;18.98;8.43;;;;;;;;;;4894974;29;20065;-90
2022/10/25 06:59:07;;;;;;;16.13;7.75;;;;;;;;;;4897024;29;20413;-90
2022/10/25 07:01:35;;;;;;;14.15;7.75;;;;;;;;;;4864194;29;20140;-90
2022/10/25 07:04:07;;;;;;;19.90;8.48;;;;;;;;;;4885181;29;20136;-90
2022/10/25 07:06:40;;;;;;;19.17;7.57;;;;;;;;;;4884239;29;20403;-90
2022/10/25 07:09:20;;;;;;;18.05;7.60;;;;;;;;;;4885978;29;20042;-90
2022/10/25 07:11:51;;;;;;;21.05;8.20;;;;;;;;;;4900328;29;20499;-90
2022/10/25 07:14:20;;;;;;;19.85;8.02;;;;;;;;;;4897290;29;20041;-90
2022/10/25 07:17:11;;;;;;;16.52;7.55;;;;;;;;;;4899645;29;20063;-90
2022/10/25 07:19:39;;;;;;;20.17;8.88;;;;;;;;;;4884854;29;20061;-90
2022/10/25 07:22:07;;;;;;;16.35;8.07;;;;;;;;;;4897648;29;20072;-90
2022/10/25 07:24:35;;;;;;;23.05;9.02;;;;;;;;;;4885158;29;20044;-89
2022/10/25 07:27:03;;;;;;;22.35;8.93;;;;;;;;;;4880827;29;20061;-90
2022/10/25 07:29:35;;;;;;;18.45;9.02;;;;;;;;;;4883519;29;20033;-89
2022/10/25 07:32:03;;;;;;;20.98;8.40;;;;;;;;;;4882940;29;20045;-89
2022/10/25 07:34:31;;;;;;;20.15;8.77;;;;;;;;;;4884704;29;20076;-89
2022/10/25 07:36:59;;;;;;;21.02;9.52;;;;;;;;;;4883262;29;20053;-89
2022/10/25 07:39:51;;;;;;;21.75;9.75;;;;;;;;;;4885760;29;20148;-89
2022/10/25 07:42:43;;;;;;;21.35;8.70;;;;;;;;;;4884389;29;20093;-90
2022/10/25 07:45:11;;;;;;;21.30;8.77;;;;;;;;;;4884798;29;20489;-89
2022/10/25 07:51:14;;;;;;;20.60;9.68;;;;;;;;;;4881553;29;20427;-90
2022/10/25 07:53:47;;;;;;;19.90;9.30;;;;;;;;;;4897466;29;20420;-89
2022/10/25 07:56:17;;;;;;;22.38;9.70;;;;;;;;;;4883391;29;20049;-89
2022/10/25 07:58:55;;;;;;;27.92;9.32;;;;;;;;;;4897267;29;20164;-89
2022/10/25 08:01:25;;;;;;;21.05;9.57;;;;;;;;;;4883807;29;20445;-90
2022/10/25 08:03:54;;;;;;;16.98;8.90;;;;;;;;;;4885190;29;20049;-90
2022/10/25 08:06:23;;;;;;;19.95;9.43;;;;;;;;;;4881306;29;20040;-89
2022/10/25 08:08:55;;;;;;;19.08;9.55;;;;;;;;;;4884002;29;20820;-90
2022/10/25 08:12:05;;;;;;;20.45;10.43;;;;;;;;;;4880416;29;20048;-90
2022/10/25 08:14:33;;;;;;;16.83;9.65;;;;;;;;;;4885572;29;20072;-89
2022/10/25 08:17:09;;;;;;;22.48;9.38;;;;;;;;;;4882301;29;20056;-89
2022/10/25 08:19:37;;;;;;;21.50;8.50;;;;;;;;;;4893791;29;20040;-89
2022/10/25 08:22:05;;;;;;;21.20;9.63;;;;;;;;;;4868886;29;20079;-89
2022/10/25 08:24:38;;;;;;;21.17;9.02;;;;;;;;;;4869154;29;20036;-89
2022/10/25 08:27:07;;;;;;;17.58;8.82;;;;;;;;;;4885178;29;20431;-89
2022/10/25 08:29:35;;;;;;;23.02;9.43;;;;;;;;;;4880435;29;20045;-89
2022/10/25 08:32:03;;;;;;;16.63;8.82;;;;;;;;;;4883102;29;20045;-89
2022/10/25 08:34:36;;;;;;;21.75;8.43;;;;;;;;;;4884548;29;20534;-89
2022/10/25 08:37:04;;;;;;;21.95;9.25;;;;;;;;;;4885202;29;20138;-88
2022/10/25 08:39:34;;;;;;;16.38;8.52;;;;;;;;;;4883324;29;20419;-90
2022/10/25 08:42:20;;;;;;;17.95;8.85;;;;;;;;;;4883727;29;20049;-89
2022/10/25 08:45:09;;;;;;;20.15;9.68;;;;;;;;;;4899249;29;20135;-89
2022/10/25 08:47:42;;;;;;;18.92;9.00;;;;;;;;;;4870032;29;20064;-89
2022/10/25 08:50:21;;;;;;;17.60;8.82;;;;;;;;;;4866722;29;20046;-89
2022/10/25 08:52:53;;;;;;;18.73;8.60;;;;;;;;;;4883779;29;20081;-90
2022/10/25 08:55:31;;;;;;;21.65;9.13;;;;;;;;;;4870367;29;20055;-90
2022/10/25 08:58:12;;;;;;;16.55;8.02;;;;;;;;;;4884742;29;20041;-90
2022/10/25 09:00:41;;;;;;;21.08;7.93;;;;;;;;;;4883282;29;20043;-89
2022/10/25 09:03:15;;;;;;;15.93;7.60;;;;;;;;;;4867006;29;20423;-89
2022/10/25 09:06:04;;;;;;;19.10;8.20;;;;;;;;;;4878521;29;20512;-90
2022/10/25 09:08:57;;;;;;;17.52;8.05;;;;;;;;;;4869174;29;20052;-89
2022/10/25 09:11:38;;;;;;;18.42;7.68;;;;;;;;;;4883219;29;20155;-90
2022/10/25 09:14:21;;;;;;;18.85;8.48;;;;;;;;;;4881169;29;20082;-90
2022/10/25 09:17:19;;;;;;;14.35;6.97;;;;;;;;;;4896595;29;20124;-90
2022/10/25 09:20:03;;;;;;;14.43;6.78;;;;;;;;;;4867616;29;20525;-90
2022/10/25 09:22:46;;;;;;;15.35;6.53;;;;;;;;;;4879937;29;20052;-90
2022/10/25 09:25:21;;;;;;;16.52;6.60;;;;;;;;;;4882248;29;20045;-90
2022/10/25 09:28:02;;;;;;;11.70;5.90;;;;;;;;;;4882173;29;20609;-90
2022/10/25 09:30:57;;;;;;;14.15;6.80;;;;;;;;;;4869588;29;20041;-90
2022/10/25 09:33:29;;;;;;;10.48;5.55;;;;;;;;;;4884726;29;20135;-90
2022/10/25 09:36:03;;;;;;;11.05;5.10;;;;;;;;;;4881410;29;20159;-90
2022/10/25 09:39:01;;;;;;;16.35;6.63;;;;;;;;;;4897989;29;20040;-90
2022/10/25 09:41:40;;;;;;;11.02;5.35;;;;;;;;;;4808432;29;20053;-90
2022/10/25 09:44:36;;;;;;;16.02;5.15;;;;;;;;;;4826862;29;20046;-90
2022/10/25 09:47:04;;;;;;;16.60;5.00;;;;;;;;;;4805336;29;20066;-91
2022/10/25 09:50:00;;;;;;;13.85;5.05;;;;;;;;;;4807374;29;20046;-90
2022/10/25 09:52:30;;;;;;;11.43;5.38;;;;;;;;;;4797298;29;20057;-91
2022/10/25 09:55:20;;;;;;;12.25;4.88;;;;;;;;;;4827134;29;20122;-93
2022/10/25 09:57:47;;;;;;;14.30;4.85;;;;;;;;;;4826160;29;20054;-90
2022/10/25 10:00:20;;;;;;;13.38;4.35;;;;;;;;;;4796324;29;20050;-91
2022/10/25 10:02:47;;;;;;;13.75;5.10;;;;;;;;;;4791162;29;20651;-90
2022/10/25 10:05:17;;;;;;;8.43;4.40;;;;;;;;;;4820680;29;20046;-90
2022/10/25 10:07:50;;;;;;;17.10;4.72;;;;;;;;;;4808436;29;20520;-90
2022/10/25 10:10:22;;;;;;;10.75;4.30;;;;;;;;;;4822572;29;20045;-90
2022/10/25 10:13:00;;;;;;;16.15;4.63;;;;;;;;;;4823060;29;20127;-89
2022/10/25 10:15:33;;;;;;;12.35;4.03;;;;;;;;;;4823363;29;20059;-89
2022/10/25 10:18:18;;;;;;;11.35;4.25;;;;;;;;;;4847707;29;20077;-89
2022/10/25 10:21:00;;;;;;;14.55;4.00;;;;;;;;;;4885692;29;20472;-89
2022/10/25 10:23:35;;;;;;;8.13;3.80;;;;;;;;;;4882622;29;20041;-90
2022/10/25 10:26:13;;;;;;;12.55;3.20;;;;;;;;;;4884481;29;20045;-90
2022/10/25 10:28:47;;;;;;;8.35;3.13;;;;;;;;;;4883751;29;20047;-89
2022/10/25 10:31:17;;;;;;;12.07;3.28;;;;;;;;;;4883893;29;20048;-90
2022/10/25 10:33:50;;;;;;;9.75;3.88;;;;;;;;;;4886576;29;20040;-90
2022/10/25 10:36:29;;;;;;;9.43;3.20;;;;;;;;;;4887532;29;20052;-90
2022/10/25 10:39:21;;;;;;;6.88;2.83;;;;;;;;;;4886096;29;20510;-90
2022/10/25 10:42:01;;;;;;;8.77;2.88;;;;;;;;;;4896752;29;20052;-90
2022/10/25 10:44:39;;;;;;;12.82;2.90;;;;;;;;;;4856978;29;20045;-90
2022/10/25 10:47:19;;;;;;;14.68;4.75;;;;;;;;;;4884594;29;20068;-89
2022/10/25 10:49:47;;;;;;;9.95;2.95;;;;;;;;;;4885762;29;20052;-90
2022/10/25 10:52:41;;;;;;;11.55;3.40;;;;;;;;;;4882690;29;20037;-90
2022/10/25 10:55:24;;;;;;;11.00;3.53;;;;;;;;;;4900397;29;20530;-90
2022/10/25 10:57:53;;;;;;;9.63;3.25;;;;;;;;;;4882801;29;20526;-90
2022/10/25 11:01:04;;;;;;;13.88;3.60;;;;;;;;;;4867129;29;20036;-90
2022/10/25 11:03:40;;;;;;;11.95;3.08;;;;;;;;;;4879802;29;20055;-90
2022/10/25 11:06:35;;;;;;;10.93;3.15;;;;;;;;;;4897092;29;20518;-90
2022/10/25 11:09:14;;;;;;;7.57;2.53;;;;;;;;;;4884414;29;20048;-90
2022/10/25 11:11:42;;;;;;;7.25;2.72;;;;;;;;;;4882679;29;20049;-89
2022/10/25 11:14:11;;;;;;;11.30;3.10;;;;;;;;;;4871337;29;20101;-91
2022/10/25 11:16:43;;;;;;;9.02;2.80;;;;;;;;;;4878952;29;20068;-89
2022/10/25 11:19:41;;;;;;;8.98;3.35;;;;;;;;;;4879859;29;20061;-90
2022/10/25 11:22:30;;;;;;;8.32;2.70;;;;;;;;;;4886795;29;20473;-89
2022/10/25 11:25:14;;;;;;;11.27;3.20;;;;;;;;;;4883840;29;20041;-88
2022/10/25 11:27:53;;;;;;;8.63;2.90;;;;;;;;;;4886231;29;20076;-88
2022/10/25 11:30:23;;;;;;;10.05;2.53;;;;;;;;;;4882906;29;20136;-88
2022/10/25 11:33:35;;;;;;;6.70;2.53;;;;;;;;;;4883551;29;20044;-88
2022/10/25 11:36:46;;;;;;;9.70;2.38;;;;;;;;;;4883656;29;20041;-89
2022/10/25 11:39:24;;;;;;;7.68;2.30;;;;;;;;;;4898706;29;20041;-89
2022/10/25 11:42:13;;;;;;;5.28;1.90;;;;;;;;;;4886089;29;20048;-88
2022/10/25 11:45:18;;;;;;;10.10;2.42;;;;;;;;;;4885736;29;20500;-90
2022/10/25 11:47:48;;;;;;;11.20;3.42;;;;;;;;;;4894831;29;20049;-90
2022/10/25 11:50:48;;;;;;;7.50;1.90;;;;;;;;;;4888196;29;20048;-90
2022/10/25 11:53:38;;;;;;;6.53;1.90;;;;;;;;;;4892581;29;20045;-89
2022/10/25 11:56:31;;;;;;;8.02;2.03;;;;;;;;;;4884416;29;20037;-89
2022/10/25 11:59:22;;;;;;;7.25;2.00;;;;;;;;;;4896510;29;20111;-88
2022/10/25 12:02:40;;;;;;;10.43;2.47;;;;;;;;;;4905821;29;20045;-90
2022/10/25 12:05:43;;;;;;;7.72;2.25;;;;;;;;;;4824761;29;20056;-90
2022/10/25 12:08:29;;;;;;;9.85;2.25;;;;;;;;;;4821377;29;20054;-90
2022/10/25 12:11:28;;;;;;;10.50;2.20;;;;;;;;;;4792957;29;20043;-90
2022/10/25 12:14:03;;;;;;;6.40;2.38;;;;;;;;;;4806769;29;20466;-90
2022/10/25 12:16:36;;;;;;;10.73;2.35;;;;;;;;;;4809319;29;20066;-89
2022/10/25 12:19:11;;;;;;;7.93;2.40;;;;;;;;;;4811018;29;20058;-89
2022/10/25 12:21:52;;;;;;;7.13;2.38;;;;;;;;;;4807497;29;20050;-90
2022/10/25 12:24:34;;;;;;;21.02;2.80;;;;;;;;;;4808669;29;20076;-90
2022/10/25 12:27:29;;;;;;;12.82;2.17;;;;;;;;;;4799896;29;20513;-90
2022/10/25 12:30:14;;;;;;;7.57;2.22;;;;;;;;;;4815084;29;20059;-90
2022/10/25 12:32:55;;;;;;;6.75;2.20;;;;;;;;;;4811680;29;20531;-89
2022/10/25 12:35:32;;;;;;;8.60;2.38;;;;;;;;;;4838174;29;20056;-89
2022/10/25 12:38:10;;;;;;;8.77;2.30;;;;;;;;;;4895514;29;20231;-91
2022/10/25 12:41:22;;;;;;;10.80;2.15;;;;;;;;;;4896665;29;20036;-92
2022/10/25 12:44:12;;;;;;;7.43;2.20;;;;;;;;;;4872890;29;20120;-91
2022/10/25 12:50:17;;;;;;;6.68;3.13;;;;;;;;;;4884392;29;20048;-90
2022/10/25 12:53:28;;;;;;;5.85;2.47;;;;;;;;;;4879647;29;20060;-90
2022/10/25 12:56:27;;;;;;;10.02;2.83;;;;;;;;;;4884520;29;20036;-90
2022/10/25 12:59:14;;;;;;;5.60;2.67;;;;;;;;;;4867272;29;20048;-90
2022/10/25 13:02:41;;;;;;;11.05;2.35;;;;;;;;;;4881706;29;20040;-90
2022/10/25 13:05:37;;;;;;;13.48;2.33;;;;;;;;;;4882385;29;20041;-90
2022/10/25 13:08:06;;;;;;;10.52;2.00;;;;;;;;;;4891637;29;20047;-91
2022/10/25 13:10:42;;;;;;;8.80;1.98;;;;;;;;;;4908289;29;20100;-90
2022/10/25 13:13:48;;;;;;;8.77;2.08;;;;;;;;;;4907669;29;20048;-91
2022/10/25 13:16:41;;;;;;;8.38;1.90;;;;;;;;;;4894338;29;20050;-91
2022/10/25 13:19:31;;;;;;;6.45;2.45;;;;;;;;;;4894289;29;20097;-91
2022/10/25 13:22:30;;;;;;;8.75;1.88;;;;;;;;;;4908769;29;20392;-91
2022/10/25 13:25:48;;;;;;;9.30;2.63;;;;;;;;;;4890261;29;20060;-91
2022/10/25 13:28:42;;;;;;;9.30;2.33;;;;;;;;;;4883419;29;20156;-90
2022/10/25 13:31:33;;;;;;;5.88;2.35;;;;;;;;;;4915802;29;20032;-91
2022/10/25 13:34:10;;;;;;;7.35;2.13;;;;;;;;;;4886138;29;20057;-90
2022/10/25 13:36:57;;;;;;;6.80;1.63;;;;;;;;;;4884379;29;20045;-92
2022/10/25 13:39:36;;;;;;;6.03;2.00;;;;;;;;;;4853546;29;20037;-90
2022/10/25 13:42:37;;;;;;;7.43;1.85;;;;;;;;;;4852658;29;20041;-89
2022/10/25 13:45:32;;;;;;;7.50;1.85;;;;;;;;;;4867547;29;20047;-90
2022/10/25 13:48:14;;;;;;;8.80;2.00;;;;;;;;;;4880696;29;20127;-89
2022/10/25 13:50:51;;;;;;;10.52;2.10;;;;;;;;;;4855382;29;20049;-89
2022/10/25 13:53:23;;;;;;;8.48;1.90;;;;;;;;;;4877530;29;20101;-90
2022/10/25 13:56:04;;;;;;;6.65;1.88;;;;;;;;;;4881604;29;20056;-90
2022/10/25 13:58:56;;;;;;;11.55;1.83;;;;;;;;;;4897370;29;20040;-90
2022/10/25 14:01:24;;;;;;;6.15;2.22;;;;;;;;;;4886638;29;20044;-90
2022/10/25 14:03:53;;;;;;;12.27;2.50;;;;;;;;;;4875738;29;20060;-90
2022/10/25 14:06:32;;;;;;;9.77;2.10;;;;;;;;;;4897891;29;20048;-90
2022/10/25 14:09:18;;;;;;;11.52;2.28;;;;;;;;;;4877017;29;20128;-92
2022/10/25 14:11:50;;;;;;;6.97;1.85;;;;;;;;;;4885467;29;20159;-91
2022/10/25 14:14:35;;;;;;;7.60;1.83;;;;;;;;;;4869826;29;20131;-90
2022/10/25 14:17:27;;;;;;;6.75;2.05;;;;;;;;;;4891840;29;20036;-92
2022/10/25 14:20:18;;;;;;;10.80;2.30;;;;;;;;;;4856409;29;20515;-91
2022/10/25 14:22:51;;;;;;;7.70;2.00;;;;;;;;;;4869282;29;20109;-91
2022/10/25 14:25:57;;;;;;;8.30;1.92;;;;;;;;;;4866711;29;20053;-91
2022/10/25 14:28:27;;;;;;;6.40;1.70;;;;;;;;;;4870093;29;20060;-90
2022/10/25 14:31:03;;;;;;;5.60;1.58;;;;;;;;;;4900254;29;20038;-90
2022/10/25 14:33:54;;;;;;;8.40;2.30;;;;;;;;;;4922147;29;20049;-89
2022/10/25 14:36:31;;;;;;;6.47;2.22;;;;;;;;;;4908544;29;20052;-90
2022/10/25 14:39:15;;;;;;;5.80;1.75;;;;;;;;;;4899729;29;20097;-91
2022/10/25 14:42:01;;;;;;;6.25;2.05;;;;;;;;;;4906035;29;20052;-90
2022/10/25 14:44:31;;;;;;;8.95;1.75;;;;;;;;;;4898953;29;20045;-91
2022/10/25 14:46:59;;;;;;;6.88;1.90;;;;;;;;;;4867362;29;20059;-90
2022/10/25 14:49:27;;;;;;;10.20;2.45;;;;;;;;;;4894962;29;21663;-91
2022/10/25 14:52:19;;;;;;;7.90;2.17;;;;;;;;;;4894674;29;20033;-91
2022/10/25 14:54:58;;;;;;;8.50;1.90;;;;;;;;;;4902213;29;20460;-92
2022/10/25 14:57:33;;;;;;;8.90;2.05;;;;;;;;;;4871927;29;20037;-91
2022/10/25 15:00:28;;;;;;;10.52;2.78;;;;;;;;;;4919210;29;20055;-91
2022/10/25 15:03:03;;;;;;;6.32;2.38;;;;;;;;;;4883516;29;20052;-90
2022/10/25 15:05:41;;;;;;;5.63;1.98;;;;;;;;;;4876691;29;20053;-90
2022/10/25 15:08:18;;;;;;;7.65;1.98;;;;;;;;;;4876968;29;20091;-90
2022/10/25 15:11:09;;;;;;;9.50;2.30;;;;;;;;;;4897944;29;20053;-89
2022/10/25 15:13:37;;;;;;;6.43;2.08;;;;;;;;;;4895459;29;20114;-90
2022/10/25 15:16:39;;;;;;;5.93;2.53;;;;;;;;;;4890045;29;20400;-91
2022/10/25 15:19:16;;;;;;;9.43;3.30;;;;;;;;;;4904243;29;20049;-90
2022/10/25 15:22:05;;;;;;;9.15;4.10;;;;;;;;;;4881827;29;20387;-91
2022/10/25 15:24:44;;;;;;;6.43;2.28;;;;;;;;;;4880971;29;20044;-90
2022/10/25 15:27:30;;;;;;;8.40;2.50;;;;;;;;;;4885885;29;20127;-90
2022/10/25 15:29:57;;;;;;;7.82;2.58;;;;;;;;;;4904496;29;20073;-89
2022/10/25 15:32:26;;;;;;;4.43;2.10;;;;;;;;;;4868439;29;20044;-89
2022/10/25 15:34:57;;;;;;;8.35;2.50;;;;;;;;;;4901108;29;20105;-89
2022/10/25 15:37:27;;;;;;;8.73;2.30;;;;;;;;;;4926131;29;20049;-89
2022/10/25 15:39:56;;;;;;;8.77;2.50;;;;;;;;;;4908084;29;20040;-89
2022/10/25 15:42:27;;;;;;;6.63;2.42;;;;;;;;;;4891978;29;20061;-90
2022/10/25 15:45:19;;;;;;;5.95;2.50;;;;;;;;;;4881381;29;20639;-90
2022/10/25 15:47:49;;;;;;;7.18;2.97;;;;;;;;;;4880020;29;20049;-90
2022/10/25 15:50:18;;;;;;;8.88;2.47;;;;;;;;;;4876020;29;20045;-90
2022/10/25 15:52:45;;;;;;;7.75;2.42;;;;;;;;;;4887862;29;20059;-90